createdAt,value
2023-04-24T00:01:18.166Z,10.57
2023-04-24T00:04:19.905Z,7.60
2023-04-24T00:07:21.982Z,7.93
2023-04-24T00:10:23.760Z,12.97
2023-04-24T00:13:25.576Z,25.17
2023-04-24T00:16:27.386Z,12.13
2023-04-24T00:19:29.602Z,10.73
2023-04-24T00:22:31.845Z,8.67
2023-04-24T00:25:33.548Z,9.07
2023-04-24T00:28:35.231Z,9.63
2023-04-24T00:31:39.173Z,8.97
2023-04-24T00:34:41.436Z,12.27
2023-04-24T00:37:43.394Z,13.47
2023-04-24T00:40:45.239Z,9.57
2023-04-24T00:43:47.201Z,15.40
2023-04-24T00:46:52.971Z,12.93
2023-04-24T00:49:54.649Z,11.97
2023-04-24T00:52:56.425Z,9.23
2023-04-24T00:55:58.616Z,11.30
2023-04-24T00:59:00.651Z,12.13
2023-04-24T01:02:02.301Z,15.27
2023-04-24T01:05:04.690Z,13.40
2023-04-24T01:08:06.986Z,12.60
2023-04-24T01:11:08.733Z,12.50
2023-04-24T01:14:10.720Z,9.73
2023-04-24T01:17:12.876Z,12.20
2023-04-24T01:20:15.538Z,11.00
2023-04-24T01:23:18.007Z,11.27
2023-04-24T01:26:21.207Z,12.47
2023-04-24T01:29:22.888Z,12.27
2023-04-24T01:32:25.211Z,14.77
2023-04-24T01:35:27.099Z,11.13
2023-04-24T01:38:28.965Z,12.27
2023-04-24T01:41:31.129Z,15.10
2023-04-24T01:44:33.055Z,16.03
2023-04-24T01:47:34.839Z,12.23
2023-04-24T01:50:36.652Z,14.07
2023-04-24T01:53:38.947Z,13.47
2023-04-24T01:56:42.758Z,11.87
2023-04-24T01:59:44.448Z,11.33
2023-04-24T02:02:48.101Z,9.73
2023-04-24T02:05:50.124Z,12.60
2023-04-24T02:08:51.854Z,11.87
2023-04-24T02:11:53.504Z,14.70
2023-04-24T02:14:55.153Z,12.57
2023-04-24T02:17:56.968Z,12.73
2023-04-24T02:20:58.920Z,11.73
2023-04-24T02:24:00.591Z,11.53
2023-04-24T02:27:03.051Z,13.47
2023-04-24T02:30:04.880Z,21.10
2023-04-24T02:33:06.644Z,21.63
2023-04-24T02:36:08.815Z,22.87
2023-04-24T02:39:10.597Z,15.13
2023-04-24T02:42:13.919Z,20.70
2023-04-24T02:45:15.582Z,27.60
2023-04-24T02:48:18.158Z,19.90
2023-04-24T02:51:20.062Z,14.07
2023-04-24T02:54:21.724Z,11.37
2023-04-24T02:57:23.377Z,12.00
2023-04-24T03:00:25.271Z,11.77
2023-04-24T03:03:27.222Z,18.00
2023-04-24T03:06:29.181Z,14.40
2023-04-24T03:09:30.879Z,14.63
2023-04-24T03:12:32.643Z,17.50
2023-04-24T03:15:34.349Z,15.03
2023-04-24T03:18:36.020Z,21.57
2023-04-24T03:21:41.669Z,17.40
2023-04-24T03:24:43.536Z,21.30
2023-04-24T03:27:45.825Z,17.00
2023-04-24T03:30:56.100Z,19.13
2023-04-24T03:33:59.282Z,13.13
2023-04-24T03:37:01.801Z,9.60
2023-04-24T03:40:04.988Z,9.87
2023-04-24T03:43:06.752Z,12.77
2023-04-24T03:46:10.552Z,9.60
2023-04-24T03:49:16.954Z,8.37
2023-04-24T03:52:21.820Z,10.43
2023-04-24T03:55:23.686Z,16.27
2023-04-24T03:58:25.949Z,13.00
2023-04-24T04:01:30.226Z,17.13
2023-04-24T04:04:40.535Z,12.37
2023-04-24T04:07:42.603Z,10.50
2023-04-24T04:10:44.334Z,11.30
2023-04-24T04:13:46.707Z,8.17
2023-04-24T04:16:48.616Z,8.73
2023-04-24T04:19:50.474Z,9.93
2023-04-24T04:22:52.115Z,10.70
2023-04-24T04:26:00.865Z,17.43
2023-04-24T04:29:14.214Z,13.43
2023-04-24T04:32:18.928Z,14.97
2023-04-24T04:35:22.322Z,16.90
2023-04-24T04:38:25.448Z,18.00
2023-04-24T04:41:38.818Z,15.67
2023-04-24T04:44:40.956Z,12.70
2023-04-24T04:47:45.598Z,14.30
2023-04-24T04:50:47.523Z,21.13
2023-04-24T04:53:49.681Z,36.63
2023-04-24T04:56:51.751Z,24.67
2023-04-24T04:59:53.925Z,15.87
2023-04-24T05:03:20.821Z,18.30
2023-04-24T05:06:28.674Z,13.50
2023-04-24T05:09:30.827Z,30.97
2023-04-24T05:12:37.544Z,18.90
2023-04-24T05:15:39.377Z,33.90
2023-04-24T05:18:41.903Z,21.97
2023-04-24T05:21:46.510Z,29.10
2023-04-24T05:24:48.987Z,22.37
2023-04-24T05:28:16.958Z,38.10
2023-04-24T05:31:24.233Z,31.17
2023-04-24T05:34:25.958Z,18.83
2023-04-24T05:37:31.007Z,29.60
2023-04-24T05:40:32.761Z,33.00
2023-04-24T05:43:34.646Z,24.37
2023-04-24T05:46:36.507Z,94.97
2023-04-24T05:49:38.285Z,232.40
2023-04-24T05:52:40.670Z,125.07
2023-04-24T05:55:56.170Z,760.47
2023-04-24T05:58:58.459Z,438.10
2023-04-24T06:02:00.383Z,157.67
2023-04-24T06:05:02.815Z,41.57
2023-04-24T06:08:04.795Z,27.87
2023-04-24T06:11:11.059Z,20.17
2023-04-24T06:14:13.872Z,18.67
2023-04-24T06:17:35.752Z,14.20
2023-04-24T06:20:37.553Z,19.17
2023-04-24T06:23:39.224Z,9.70
2023-04-24T06:26:41.054Z,9.80
2023-04-24T06:29:43.203Z,8.43
2023-04-24T06:32:45.125Z,10.37
2023-04-24T06:35:46.751Z,7.57
2023-04-24T06:38:48.348Z,9.10
2023-04-24T06:41:50.042Z,9.63
2023-04-24T06:44:55.318Z,12.10
2023-04-24T06:47:57.514Z,11.97
2023-04-24T06:50:59.212Z,8.77
2023-04-24T06:54:00.851Z,5.67
2023-04-24T06:57:03.590Z,5.20
2023-04-24T07:00:06.307Z,7.57
2023-04-24T07:03:08.105Z,6.73
2023-04-24T07:06:11.921Z,9.70
2023-04-24T07:09:15.004Z,7.93
2023-04-24T07:12:17.996Z,6.30
2023-04-24T07:15:19.966Z,7.10
2023-04-24T07:18:21.968Z,8.13
2023-04-24T07:21:23.622Z,8.30
2023-04-24T07:24:26.889Z,9.40
2023-04-24T07:27:28.570Z,6.23
2023-04-24T07:30:30.345Z,6.80
2023-04-24T07:33:32.140Z,7.20
2023-04-24T07:36:33.900Z,9.00
2023-04-24T07:39:35.633Z,12.73
2023-04-24T07:42:37.476Z,9.07
2023-04-24T07:45:40.638Z,8.17
2023-04-24T07:48:42.406Z,6.47
2023-04-24T07:51:44.091Z,7.03
2023-04-24T07:54:46.077Z,4.80
2023-04-24T07:57:47.803Z,11.47
2023-04-24T08:00:49.500Z,8.07
2023-04-24T08:03:51.885Z,12.50
2023-04-24T08:06:53.847Z,6.53
2023-04-24T08:09:55.645Z,7.73
2023-04-24T08:12:57.533Z,6.97
2023-04-24T08:15:59.282Z,7.53
2023-04-24T08:19:01.100Z,6.33
2023-04-24T08:22:03.681Z,8.07
2023-04-24T08:25:05.744Z,10.77
2023-04-24T08:28:07.801Z,11.97
2023-04-24T08:31:09.556Z,7.07
2023-04-24T08:34:11.338Z,8.57
2023-04-24T08:37:13.141Z,15.93
2023-04-24T08:40:16.160Z,12.73
2023-04-24T08:43:18.086Z,16.17
2023-04-24T08:46:20.648Z,14.90
2023-04-24T08:49:22.548Z,10.37
2023-04-24T08:52:24.371Z,8.80
2023-04-24T08:55:26.147Z,12.17
2023-04-24T08:58:28.284Z,9.23
2023-04-24T09:01:30.413Z,9.23
2023-04-24T09:04:33.961Z,7.77
2023-04-24T09:07:37.002Z,5.40
2023-04-24T09:10:40.070Z,7.13
2023-04-24T09:13:42.333Z,6.83
2023-04-24T09:16:44.078Z,5.20
2023-04-24T09:19:46.067Z,10.50
2023-04-24T09:22:48.262Z,5.40
2023-04-24T09:25:55.088Z,8.77
2023-04-24T09:28:56.773Z,15.10
2023-04-24T09:31:58.661Z,5.40
2023-04-24T09:35:06.814Z,6.38
2023-04-24T09:38:08.496Z,6.65
2023-04-24T09:41:14.255Z,6.43
2023-04-24T09:44:17.367Z,6.93
2023-04-24T09:47:19.099Z,5.90
2023-04-24T09:50:22.457Z,5.43
2023-04-24T09:53:25.646Z,6.33
2023-04-24T09:56:27.772Z,7.33
2023-04-24T09:59:29.687Z,6.87
2023-04-24T10:02:33.011Z,6.27
2023-04-24T10:05:36.765Z,5.63
2023-04-24T10:08:39.878Z,7.10
2023-04-24T10:11:46.218Z,8.07
2023-04-24T10:14:48.611Z,6.53
2023-04-24T10:17:54.205Z,10.50
2023-04-24T10:20:56.292Z,11.50
2023-04-24T10:23:58.855Z,7.37
2023-04-24T10:27:02.407Z,6.27
2023-04-24T10:30:04.374Z,9.70
2023-04-24T10:33:07.835Z,9.57
2023-04-24T10:36:13.328Z,7.90
2023-04-24T10:39:18.732Z,6.90
2023-04-24T10:42:20.685Z,11.97
2023-04-24T10:45:23.208Z,9.67
2023-04-24T10:48:27.395Z,11.17
2023-04-24T10:51:51.049Z,8.17
2023-04-24T10:54:52.704Z,7.93
2023-04-24T10:58:04.679Z,7.40
2023-04-24T11:01:06.465Z,8.87
2023-04-24T11:04:08.224Z,8.13
2023-04-24T11:07:10.364Z,5.73
2023-04-24T11:10:26.077Z,5.80
2023-04-24T11:13:29.152Z,9.03
2023-04-24T11:16:31.023Z,5.83
2023-04-24T11:19:34.809Z,6.17
2023-04-24T11:22:37.307Z,6.67
2023-04-24T11:25:39.130Z,6.60
2023-04-24T11:28:50.412Z,7.53
2023-04-24T11:31:52.486Z,7.37
2023-04-24T11:34:56.061Z,8.13
2023-04-24T11:41:04.337Z,8.80
2023-04-24T11:44:07.880Z,6.80
2023-04-24T11:47:09.828Z,8.23
2023-04-24T11:50:15.753Z,8.33
2023-04-24T11:53:19.420Z,6.33
2023-04-24T11:56:27.309Z,7.37
2023-04-24T11:59:28.983Z,10.77
2023-04-24T12:02:30.856Z,9.60
2023-04-24T12:05:32.765Z,10.50
2023-04-24T12:08:37.284Z,7.93
2023-04-24T12:11:53.236Z,7.37
2023-04-24T12:14:56.332Z,11.93
2023-04-24T12:17:58.447Z,8.43
2023-04-24T12:21:16.540Z,10.70
2023-04-24T12:24:18.216Z,9.87
2023-04-24T12:27:21.635Z,8.10
2023-04-24T12:30:27.254Z,7.63
2023-04-24T12:33:28.966Z,5.70
2023-04-24T12:36:30.886Z,9.00
2023-04-24T12:39:32.536Z,14.57
2023-04-24T12:42:34.831Z,27.30
2023-04-24T12:45:36.420Z,17.23
2023-04-24T12:48:38.264Z,9.63
2023-04-24T12:51:40.216Z,8.70
2023-04-24T12:54:41.954Z,7.77
2023-04-24T12:57:43.744Z,10.50
2023-04-24T13:00:46.843Z,14.77
2023-04-24T13:03:48.769Z,7.43
2023-04-24T13:06:50.737Z,9.77
2023-04-24T13:09:52.945Z,8.27
2023-04-24T13:12:54.574Z,10.83
2023-04-24T13:15:56.171Z,7.30
2023-04-24T13:18:58.313Z,8.27
2023-04-24T13:22:00.310Z,7.50
2023-04-24T13:25:02.347Z,11.13
2023-04-24T13:28:04.124Z,6.37
2023-04-24T13:31:05.950Z,6.63
2023-04-24T13:34:08.354Z,11.43
2023-04-24T13:37:10.121Z,8.80
2023-04-24T13:40:12.033Z,8.63
2023-04-24T13:43:14.056Z,7.37
2023-04-24T13:46:15.934Z,16.17
2023-04-24T13:49:17.628Z,10.70
2023-04-24T13:52:19.264Z,7.93
2023-04-24T13:55:21.066Z,10.03
2023-04-24T13:58:22.666Z,7.13
2023-04-24T14:01:25.877Z,13.50
2023-04-24T14:04:27.834Z,7.00
2023-04-24T14:07:29.849Z,7.70
2023-04-24T14:10:31.554Z,9.67
2023-04-24T14:13:33.186Z,12.63
2023-04-24T14:16:35.913Z,9.70
2023-04-24T14:19:37.756Z,7.93
2023-04-24T14:22:39.415Z,9.53
2023-04-24T14:25:41.045Z,8.93
2023-04-24T14:28:43.001Z,11.20
2023-04-24T14:31:44.767Z,10.80
2023-04-24T14:34:46.564Z,8.27
2023-04-24T14:37:49.452Z,12.47
2023-04-24T14:43:55.795Z,7.30
2023-04-24T14:46:57.533Z,11.93
2023-04-24T14:49:59.603Z,9.63
2023-04-24T14:53:03.021Z,7.43
2023-04-24T14:56:04.875Z,7.93
2023-04-24T14:59:06.627Z,12.33
2023-04-24T15:02:16.010Z,15.30
2023-04-24T15:05:19.034Z,8.80
2023-04-24T15:08:21.270Z,10.53
2023-04-24T15:11:22.974Z,8.27
2023-04-24T15:14:24.753Z,12.60
2023-04-24T15:17:27.535Z,9.90
2023-04-24T15:20:29.336Z,9.03
2023-04-24T15:23:31.171Z,7.70
2023-04-24T15:26:32.855Z,11.23
2023-04-24T15:29:34.463Z,10.93
2023-04-24T15:32:36.268Z,8.33
2023-04-24T15:35:38.105Z,10.97
2023-04-24T15:38:41.472Z,10.00
2023-04-24T15:41:43.196Z,9.23
2023-04-24T15:44:46.012Z,10.57
2023-04-24T15:47:47.850Z,13.60
2023-04-24T15:50:49.483Z,12.80
2023-04-24T15:53:51.242Z,9.63
2023-04-24T15:56:52.986Z,12.47
2023-04-24T15:59:54.703Z,12.90
2023-04-24T16:02:56.669Z,9.17
2023-04-24T16:05:58.570Z,8.17
2023-04-24T16:09:02.268Z,8.87
2023-04-24T16:12:05.448Z,7.90
2023-04-24T16:15:07.550Z,9.77
2023-04-24T16:18:09.506Z,7.87
2023-04-24T16:21:11.632Z,8.07
2023-04-24T16:24:13.767Z,9.23
2023-04-24T16:27:16.095Z,9.47
2023-04-24T16:30:18.393Z,13.00
2023-04-24T16:33:20.444Z,11.10
2023-04-24T16:36:22.488Z,13.93
2023-04-24T16:39:24.556Z,10.57
2023-04-24T16:42:26.896Z,10.13
2023-04-24T16:45:29.083Z,10.10
2023-04-24T16:48:32.755Z,9.90
2023-04-24T16:51:34.916Z,9.93
2023-04-24T16:54:37.125Z,11.80
2023-04-24T16:57:42.465Z,10.03
2023-04-24T17:00:49.874Z,13.20
2023-04-24T17:03:59.171Z,10.30
2023-04-24T17:07:02.014Z,10.77
2023-04-24T17:10:04.754Z,8.80
2023-04-24T17:13:08.348Z,10.60
2023-04-24T17:16:11.316Z,13.97
2023-04-24T17:19:16.320Z,17.23
2023-04-24T17:22:23.546Z,19.33
2023-04-24T17:25:26.030Z,46.37
2023-04-24T17:28:29.769Z,24.43
2023-04-24T17:31:32.096Z,21.23
2023-04-24T17:34:34.314Z,20.87
2023-04-24T17:37:36.590Z,18.87
2023-04-24T17:40:39.639Z,21.60
2023-04-24T17:43:41.951Z,17.40
2023-04-24T17:46:43.612Z,18.40
2023-04-24T17:49:45.514Z,15.13
2023-04-24T17:52:47.276Z,10.37
2023-04-24T17:55:49.061Z,9.27
2023-04-24T17:58:51.616Z,9.93
2023-04-24T18:01:53.552Z,8.97
2023-04-24T18:04:55.551Z,7.77
2023-04-24T18:08:03.248Z,5.87
2023-04-24T18:11:04.937Z,8.33
2023-04-24T18:14:12.543Z,6.70
2023-04-24T18:17:16.503Z,7.70
2023-04-24T18:20:24.394Z,12.67
2023-04-24T18:23:26.200Z,9.90
2023-04-24T18:26:30.464Z,13.33
2023-04-24T18:29:33.362Z,7.67
2023-04-24T18:32:35.667Z,7.47
2023-04-24T18:35:38.159Z,10.27
2023-04-24T18:38:39.924Z,8.23
2023-04-24T18:41:41.708Z,11.60
2023-04-24T18:44:45.512Z,8.17
2023-04-24T18:47:47.318Z,9.90
2023-04-24T18:50:53.395Z,8.63
2023-04-24T18:53:55.124Z,7.77
2023-04-24T18:56:56.907Z,12.57
2023-04-24T19:00:02.438Z,9.40
2023-04-24T19:03:04.461Z,9.03
2023-04-24T19:06:06.490Z,9.47
2023-04-24T19:09:08.217Z,12.60
2023-04-24T19:12:10.036Z,7.73
2023-04-24T19:15:11.997Z,9.70
2023-04-24T19:18:13.881Z,8.47
2023-04-24T19:21:15.489Z,8.47
2023-04-24T19:24:19.170Z,9.27
2023-04-24T19:27:20.912Z,13.13
2023-04-24T19:30:22.620Z,9.10
2023-04-24T19:33:27.760Z,8.67
2023-04-24T19:36:32.554Z,8.00
2023-04-24T19:39:34.322Z,10.30
2023-04-24T19:42:43.754Z,8.07
2023-04-24T19:45:46.165Z,12.00
2023-04-24T19:48:48.234Z,9.13
2023-04-24T19:51:52.795Z,9.33
2023-04-24T19:54:54.839Z,8.80
2023-04-24T19:57:59.789Z,9.73
2023-04-24T20:01:03.782Z,9.20
2023-04-24T20:04:07.879Z,12.53
2023-04-24T20:07:12.817Z,11.07
2023-04-24T20:10:14.518Z,17.40
2023-04-24T20:13:16.167Z,11.40
2023-04-24T20:16:17.988Z,10.50
2023-04-24T20:19:20.362Z,9.17
2023-04-24T20:22:22.065Z,14.20
2023-04-24T20:25:24.373Z,12.77
2023-04-24T20:28:26.488Z,11.17
2023-04-24T20:31:28.156Z,11.07
2023-04-24T20:34:29.937Z,9.27
2023-04-24T20:37:31.579Z,11.23
2023-04-24T20:40:33.284Z,9.20
2023-04-24T20:43:34.980Z,12.80
2023-04-24T20:46:36.620Z,9.90
2023-04-24T20:49:38.221Z,10.73
2023-04-24T20:52:39.863Z,11.97
2023-04-24T20:55:41.503Z,13.43
2023-04-24T20:58:49.500Z,11.30
2023-04-24T21:01:51.460Z,10.37
2023-04-24T21:04:53.180Z,12.07
2023-04-24T21:07:56.124Z,15.23
2023-04-24T21:10:57.822Z,11.53
2023-04-24T21:13:59.585Z,11.97
2023-04-24T21:17:01.862Z,16.97
2023-04-24T21:20:03.735Z,17.13
2023-04-24T21:23:05.573Z,15.07
2023-04-24T21:26:07.353Z,15.40
2023-04-24T21:29:08.986Z,16.27
2023-04-24T21:32:10.799Z,14.93
2023-04-24T21:35:12.598Z,12.53
2023-04-24T21:38:14.225Z,11.50
2023-04-24T21:41:15.883Z,11.43
2023-04-24T21:44:17.547Z,12.37
2023-04-24T21:47:19.189Z,22.10
2023-04-24T21:50:20.977Z,19.13
2023-04-24T21:53:22.590Z,15.27
2023-04-24T21:56:24.313Z,29.27
2023-04-24T21:59:25.980Z,15.90
2023-04-24T22:02:27.809Z,15.97
2023-04-24T22:05:30.853Z,13.33
2023-04-24T22:08:32.557Z,15.87
2023-04-24T22:11:34.314Z,15.53
2023-04-24T22:14:35.910Z,16.53
2023-04-24T22:17:37.629Z,15.87
2023-04-24T22:20:39.942Z,14.77
2023-04-24T22:23:41.692Z,19.50
2023-04-24T22:26:44.367Z,19.57
2023-04-24T22:29:46.005Z,23.20
2023-04-24T22:32:47.756Z,19.13
2023-04-24T22:35:49.483Z,16.50
2023-04-24T22:38:51.655Z,16.40
2023-04-24T22:41:53.622Z,16.50
2023-04-24T22:44:55.285Z,14.30
2023-04-24T22:47:57.000Z,13.10
2023-04-24T22:50:58.942Z,14.27
2023-04-24T22:54:04.109Z,13.07
2023-04-24T22:57:06.198Z,13.67
2023-04-24T23:00:12.517Z,13.23
2023-04-24T23:03:14.356Z,14.90
2023-04-24T23:06:16.304Z,12.50
2023-04-24T23:09:17.900Z,14.13
2023-04-24T23:12:19.622Z,15.57
2023-04-24T23:15:21.334Z,19.77
2023-04-24T23:18:23.111Z,14.77
2023-04-24T23:21:24.732Z,21.87
2023-04-24T23:24:26.812Z,18.27
2023-04-24T23:27:28.497Z,19.57
2023-04-24T23:30:30.297Z,21.83
2023-04-24T23:33:31.911Z,27.67
2023-04-24T23:36:33.541Z,16.83
2023-04-24T23:39:35.199Z,20.17
2023-04-24T23:42:37.036Z,28.23
2023-04-24T23:45:38.734Z,20.37
2023-04-24T23:48:40.538Z,22.70
2023-04-24T23:51:42.260Z,32.17
2023-04-24T23:54:43.946Z,26.13
2023-04-24T23:57:45.685Z,30.40
